sensor_id;sensor_type;location;lat;lon;timestamp;temperature;humidity
23681;DHT22;62915;50.832;4.462;2022-12-07T00:01:44;7.40;99.90
23681;DHT22;62915;50.832;4.462;2022-12-07T00:04:13;7.50;99.90
23681;DHT22;62915;50.832;4.462;2022-12-07T00:06:44;7.50;99.90
23681;DHT22;62915;50.832;4.462;2022-12-07T00:09:15;7.50;99.90
23681;DHT22;62915;50.832;4.462;2022-12-07T00:11:42;7.40;99.90
23681;DHT22;62915;50.832;4.462;2022-12-07T00:14:12;7.30;99.90
23681;DHT22;62915;50.832;4.462;2022-12-07T00:16:38;7.20;99.90
23681;DHT22;62915;50.832;4.462;2022-12-07T00:19:04;7.30;99.90
23681;DHT22;62915;50.832;4.462;2022-12-07T00:21:33;7.10;99.90
23681;DHT22;62915;50.832;4.462;2022-12-07T00:24:00;7.20;99.90
23681;DHT22;62915;50.832;4.462;2022-12-07T00:26:28;7.10;99.90
23681;DHT22;62915;50.832;4.462;2022-12-07T00:28:57;7.00;99.90
23681;DHT22;62915;50.832;4.462;2022-12-07T00:31:25;7.00;99.90
23681;DHT22;62915;50.832;4.462;2022-12-07T00:33:55;7.00;99.90
23681;DHT22;62915;50.832;4.462;2022-12-07T00:36:23;7.00;99.90
23681;DHT22;62915;50.832;4.462;2022-12-07T00:38:52;7.10;99.90
23681;DHT22;62915;50.832;4.462;2022-12-07T00:41:24;7.00;99.90
23681;DHT22;62915;50.832;4.462;2022-12-07T00:43:50;6.90;99.90
23681;DHT22;62915;50.832;4.462;2022-12-07T00:46:18;6.90;99.90
23681;DHT22;62915;50.832;4.462;2022-12-07T00:48:44;6.90;99.90
23681;DHT22;62915;50.832;4.462;2022-12-07T00:51:11;6.90;99.90
23681;DHT22;62915;50.832;4.462;2022-12-07T00:53:38;6.90;99.90
23681;DHT22;62915;50.832;4.462;2022-12-07T00:56:08;6.80;99.90
23681;DHT22;62915;50.832;4.462;2022-12-07T00:58:37;6.80;99.90
23681;DHT22;62915;50.832;4.462;2022-12-07T01:01:04;6.80;99.90
23681;DHT22;62915;50.832;4.462;2022-12-07T01:03:34;6.70;99.90
23681;DHT22;62915;50.832;4.462;2022-12-07T01:06:02;6.70;99.90
23681;DHT22;62915;50.832;4.462;2022-12-07T01:08:31;6.70;99.90
23681;DHT22;62915;50.832;4.462;2022-12-07T01:10:59;6.70;99.90
23681;DHT22;62915;50.832;4.462;2022-12-07T01:13:26;6.80;99.90
23681;DHT22;62915;50.832;4.462;2022-12-07T01:15:57;6.80;99.90
23681;DHT22;62915;50.832;4.462;2022-12-07T01:18:23;6.80;99.90
23681;DHT22;62915;50.832;4.462;2022-12-07T01:21:10;6.70;99.90
23681;DHT22;62915;50.832;4.462;2022-12-07T01:23:36;6.80;99.90
23681;DHT22;62915;50.832;4.462;2022-12-07T01:26:05;6.80;99.90
23681;DHT22;62915;50.832;4.462;2022-12-07T01:28:32;6.70;99.90
23681;DHT22;62915;50.832;4.462;2022-12-07T01:30:58;6.70;99.90
23681;DHT22;62915;50.832;4.462;2022-12-07T01:33:27;6.70;99.90
23681;DHT22;62915;50.832;4.462;2022-12-07T01:35:54;6.80;99.90
23681;DHT22;62915;50.832;4.462;2022-12-07T01:38:20;6.70;99.90
23681;DHT22;62915;50.832;4.462;2022-12-07T01:40:53;6.70;99.90
23681;DHT22;62915;50.832;4.462;2022-12-07T01:43:20;6.60;99.90
23681;DHT22;62915;50.832;4.462;2022-12-07T01:45:46;6.70;99.90
23681;DHT22;62915;50.832;4.462;2022-12-07T01:48:14;6.70;99.90
23681;DHT22;62915;50.832;4.462;2022-12-07T01:50:43;6.80;99.90
23681;DHT22;62915;50.832;4.462;2022-12-07T01:53:10;6.80;99.90
23681;DHT22;62915;50.832;4.462;2022-12-07T01:55:40;6.80;99.90
23681;DHT22;62915;50.832;4.462;2022-12-07T01:58:07;6.70;99.90
23681;DHT22;62915;50.832;4.462;2022-12-07T02:00:33;6.70;99.90
23681;DHT22;62915;50.832;4.462;2022-12-07T02:06:16;6.70;99.90
23681;DHT22;62915;50.832;4.462;2022-12-07T02:08:43;6.80;99.90
23681;DHT22;62915;50.832;4.462;2022-12-07T02:11:09;6.80;99.90
23681;DHT22;62915;50.832;4.462;2022-12-07T02:13:38;6.90;99.90
23681;DHT22;62915;50.832;4.462;2022-12-07T02:21:16;6.80;99.90
23681;DHT22;62915;50.832;4.462;2022-12-07T02:26:44;6.90;99.90
23681;DHT22;62915;50.832;4.462;2022-12-07T02:32:58;6.90;99.90
23681;DHT22;62915;50.832;4.462;2022-12-07T02:35:09;6.80;99.90
23681;DHT22;62915;50.832;4.462;2022-12-07T02:37:55;6.90;99.90
23681;DHT22;62915;50.832;4.462;2022-12-07T02:40:38;7.00;99.90
23681;DHT22;62915;50.832;4.462;2022-12-07T02:43:14;7.00;99.90
23681;DHT22;62915;50.832;4.462;2022-12-07T02:45:42;6.90;99.90
23681;DHT22;62915;50.832;4.462;2022-12-07T02:48:12;6.90;99.90
23681;DHT22;62915;50.832;4.462;2022-12-07T02:50:51;7.00;99.90
23681;DHT22;62915;50.832;4.462;2022-12-07T03:01:40;7.10;99.90
23681;DHT22;62915;50.832;4.462;2022-12-07T03:07:10;7.00;99.90
23681;DHT22;62915;50.832;4.462;2022-12-07T03:12:42;7.10;99.90
23681;DHT22;62915;50.832;4.462;2022-12-07T03:15:16;7.00;99.90
23681;DHT22;62915;50.832;4.462;2022-12-07T03:17:46;7.00;99.90
23681;DHT22;62915;50.832;4.462;2022-12-07T03:20:15;7.00;99.90
23681;DHT22;62915;50.832;4.462;2022-12-07T03:22:44;6.90;99.90
23681;DHT22;62915;50.832;4.462;2022-12-07T03:25:14;6.90;99.90
23681;DHT22;62915;50.832;4.462;2022-12-07T03:27:55;6.90;99.90
23681;DHT22;62915;50.832;4.462;2022-12-07T03:30:28;6.90;99.90
23681;DHT22;62915;50.832;4.462;2022-12-07T03:33:07;6.80;99.90
23681;DHT22;62915;50.832;4.462;2022-12-07T03:35:42;6.70;99.90
23681;DHT22;62915;50.832;4.462;2022-12-07T03:38:19;6.60;99.90
23681;DHT22;62915;50.832;4.462;2022-12-07T03:41:09;6.70;99.90
23681;DHT22;62915;50.832;4.462;2022-12-07T03:43:37;6.60;99.90
23681;DHT22;62915;50.832;4.462;2022-12-07T03:54:34;6.70;99.90
23681;DHT22;62915;50.832;4.462;2022-12-07T03:57:02;6.70;99.90
23681;DHT22;62915;50.832;4.462;2022-12-07T03:59:30;6.80;99.90
23681;DHT22;62915;50.832;4.462;2022-12-07T04:02:01;6.70;99.90
23681;DHT22;62915;50.832;4.462;2022-12-07T04:04:29;6.70;99.90
23681;DHT22;62915;50.832;4.462;2022-12-07T04:06:55;6.70;99.90
23681;DHT22;62915;50.832;4.462;2022-12-07T04:09:21;6.70;99.90
23681;DHT22;62915;50.832;4.462;2022-12-07T04:11:47;6.60;99.90
23681;DHT22;62915;50.832;4.462;2022-12-07T04:14:13;6.60;99.90
23681;DHT22;62915;50.832;4.462;2022-12-07T04:16:50;6.70;99.90
23681;DHT22;62915;50.832;4.462;2022-12-07T04:19:19;6.60;99.90
23681;DHT22;62915;50.832;4.462;2022-12-07T04:21:45;6.60;99.90
23681;DHT22;62915;50.832;4.462;2022-12-07T04:24:13;6.60;99.90
23681;DHT22;62915;50.832;4.462;2022-12-07T04:26:39;6.60;99.90
23681;DHT22;62915;50.832;4.462;2022-12-07T04:29:04;6.60;99.90
23681;DHT22;62915;50.832;4.462;2022-12-07T04:31:30;6.60;99.90
23681;DHT22;62915;50.832;4.462;2022-12-07T04:33:56;6.50;99.90
23681;DHT22;62915;50.832;4.462;2022-12-07T04:36:21;6.50;99.90
23681;DHT22;62915;50.832;4.462;2022-12-07T04:38:47;6.50;99.90
23681;DHT22;62915;50.832;4.462;2022-12-07T04:41:13;6.40;99.90
23681;DHT22;62915;50.832;4.462;2022-12-07T04:43:39;6.40;99.90
23681;DHT22;62915;50.832;4.462;2022-12-07T04:46:04;6.40;99.90
23681;DHT22;62915;50.832;4.462;2022-12-07T04:48:30;6.30;99.90
23681;DHT22;62915;50.832;4.462;2022-12-07T04:50:56;6.30;99.90
23681;DHT22;62915;50.832;4.462;2022-12-07T04:53:22;6.20;99.90
23681;DHT22;62915;50.832;4.462;2022-12-07T04:55:48;6.20;99.90
23681;DHT22;62915;50.832;4.462;2022-12-07T04:58:15;6.10;99.90
23681;DHT22;62915;50.832;4.462;2022-12-07T05:00:40;6.20;99.90
23681;DHT22;62915;50.832;4.462;2022-12-07T05:03:06;6.10;99.90
23681;DHT22;62915;50.832;4.462;2022-12-07T05:05:34;6.10;99.90
23681;DHT22;62915;50.832;4.462;2022-12-07T05:08:00;6.10;99.90
23681;DHT22;62915;50.832;4.462;2022-12-07T05:10:27;6.20;99.90
23681;DHT22;62915;50.832;4.462;2022-12-07T05:12:53;6.20;99.90
23681;DHT22;62915;50.832;4.462;2022-12-07T05:15:19;6.20;99.90
23681;DHT22;62915;50.832;4.462;2022-12-07T05:17:44;6.30;99.90
23681;DHT22;62915;50.832;4.462;2022-12-07T05:20:10;6.40;99.90
23681;DHT22;62915;50.832;4.462;2022-12-07T05:22:36;6.40;99.90
23681;DHT22;62915;50.832;4.462;2022-12-07T05:25:02;6.40;99.90
23681;DHT22;62915;50.832;4.462;2022-12-07T05:27:27;6.50;99.90
23681;DHT22;62915;50.832;4.462;2022-12-07T05:29:53;6.50;99.90
23681;DHT22;62915;50.832;4.462;2022-12-07T05:32:19;6.50;99.90
23681;DHT22;62915;50.832;4.462;2022-12-07T05:34:45;6.50;99.90
23681;DHT22;62915;50.832;4.462;2022-12-07T05:37:10;6.50;99.90
23681;DHT22;62915;50.832;4.462;2022-12-07T05:39:36;6.50;99.90
23681;DHT22;62915;50.832;4.462;2022-12-07T05:42:03;6.60;99.90
23681;DHT22;62915;50.832;4.462;2022-12-07T05:44:38;6.50;99.90
23681;DHT22;62915;50.832;4.462;2022-12-07T05:47:04;6.50;99.90
23681;DHT22;62915;50.832;4.462;2022-12-07T05:49:29;6.50;99.90
23681;DHT22;62915;50.832;4.462;2022-12-07T05:51:55;6.40;99.90
23681;DHT22;62915;50.832;4.462;2022-12-07T05:54:21;6.60;99.90
23681;DHT22;62915;50.832;4.462;2022-12-07T05:56:49;6.60;99.90
23681;DHT22;62915;50.832;4.462;2022-12-07T05:59:17;6.60;99.90
23681;DHT22;62915;50.832;4.462;2022-12-07T06:04:15;6.70;99.90
23681;DHT22;62915;50.832;4.462;2022-12-07T06:06:41;6.60;99.90
23681;DHT22;62915;50.832;4.462;2022-12-07T06:09:09;6.60;99.90
23681;DHT22;62915;50.832;4.462;2022-12-07T06:11:38;6.60;99.90
23681;DHT22;62915;50.832;4.462;2022-12-07T06:14:25;6.60;99.90
23681;DHT22;62915;50.832;4.462;2022-12-07T06:16:51;6.60;99.90
23681;DHT22;62915;50.832;4.462;2022-12-07T06:19:17;6.60;99.90
23681;DHT22;62915;50.832;4.462;2022-12-07T06:21:42;6.50;99.90
23681;DHT22;62915;50.832;4.462;2022-12-07T06:24:14;6.50;99.90
23681;DHT22;62915;50.832;4.462;2022-12-07T06:26:40;6.60;99.90
23681;DHT22;62915;50.832;4.462;2022-12-07T06:29:06;6.60;99.90
23681;DHT22;62915;50.832;4.462;2022-12-07T06:31:32;6.60;99.90
23681;DHT22;62915;50.832;4.462;2022-12-07T06:34:02;6.60;99.90
23681;DHT22;62915;50.832;4.462;2022-12-07T06:36:31;6.70;99.90
23681;DHT22;62915;50.832;4.462;2022-12-07T06:38:56;6.50;99.90
23681;DHT22;62915;50.832;4.462;2022-12-07T06:41:23;6.60;99.90
23681;DHT22;62915;50.832;4.462;2022-12-07T06:43:49;6.60;99.90
23681;DHT22;62915;50.832;4.462;2022-12-07T06:46:15;6.60;99.90
23681;DHT22;62915;50.832;4.462;2022-12-07T06:48:42;6.60;99.90
23681;DHT22;62915;50.832;4.462;2022-12-07T06:51:08;6.50;99.90
23681;DHT22;62915;50.832;4.462;2022-12-07T06:53:34;6.60;99.90
23681;DHT22;62915;50.832;4.462;2022-12-07T06:56:00;6.60;99.90
23681;DHT22;62915;50.832;4.462;2022-12-07T06:58:26;6.50;99.90
23681;DHT22;62915;50.832;4.462;2022-12-07T07:00:55;6.60;99.90
23681;DHT22;62915;50.832;4.462;2022-12-07T07:03:23;6.60;99.90
23681;DHT22;62915;50.832;4.462;2022-12-07T07:05:49;6.60;99.90
23681;DHT22;62915;50.832;4.462;2022-12-07T07:08:17;6.60;99.90
23681;DHT22;62915;50.832;4.462;2022-12-07T07:10:43;6.60;99.90
23681;DHT22;62915;50.832;4.462;2022-12-07T07:13:09;6.70;99.90
23681;DHT22;62915;50.832;4.462;2022-12-07T07:15:37;6.60;99.90
23681;DHT22;62915;50.832;4.462;2022-12-07T07:18:04;6.60;99.90
23681;DHT22;62915;50.832;4.462;2022-12-07T07:20:30;6.50;99.90
23681;DHT22;62915;50.832;4.462;2022-12-07T07:22:56;6.60;99.90
23681;DHT22;62915;50.832;4.462;2022-12-07T07:25:22;6.60;99.90
23681;DHT22;62915;50.832;4.462;2022-12-07T07:27:48;6.50;99.90
23681;DHT22;62915;50.832;4.462;2022-12-07T07:30:14;6.50;99.90
23681;DHT22;62915;50.832;4.462;2022-12-07T07:32:39;6.50;99.90
23681;DHT22;62915;50.832;4.462;2022-12-07T07:35:05;6.50;99.90
23681;DHT22;62915;50.832;4.462;2022-12-07T07:37:31;6.50;99.90
23681;DHT22;62915;50.832;4.462;2022-12-07T07:39:57;6.30;99.90
23681;DHT22;62915;50.832;4.462;2022-12-07T07:42:23;6.40;99.90
23681;DHT22;62915;50.832;4.462;2022-12-07T07:44:48;6.40;99.90
23681;DHT22;62915;50.832;4.462;2022-12-07T07:47:14;6.50;99.90
23681;DHT22;62915;50.832;4.462;2022-12-07T07:49:39;6.50;99.90
23681;DHT22;62915;50.832;4.462;2022-12-07T07:52:06;6.50;99.90
23681;DHT22;62915;50.832;4.462;2022-12-07T07:54:31;6.50;99.90
23681;DHT22;62915;50.832;4.462;2022-12-07T07:56:57;6.30;99.90
23681;DHT22;62915;50.832;4.462;2022-12-07T07:59:23;6.50;99.90
23681;DHT22;62915;50.832;4.462;2022-12-07T08:01:50;6.50;99.90
23681;DHT22;62915;50.832;4.462;2022-12-07T08:04:16;6.50;99.90
23681;DHT22;62915;50.832;4.462;2022-12-07T08:06:42;6.50;99.90
23681;DHT22;62915;50.832;4.462;2022-12-07T08:09:08;6.40;99.90
23681;DHT22;62915;50.832;4.462;2022-12-07T08:11:35;6.40;99.90
23681;DHT22;62915;50.832;4.462;2022-12-07T08:14:02;6.40;99.90
23681;DHT22;62915;50.832;4.462;2022-12-07T08:16:28;6.40;99.90
23681;DHT22;62915;50.832;4.462;2022-12-07T08:18:54;6.50;99.90
23681;DHT22;62915;50.832;4.462;2022-12-07T08:21:20;6.40;99.90
23681;DHT22;62915;50.832;4.462;2022-12-07T08:23:46;6.40;99.90
23681;DHT22;62915;50.832;4.462;2022-12-07T08:26:14;6.30;99.90
23681;DHT22;62915;50.832;4.462;2022-12-07T08:28:40;6.20;99.90
23681;DHT22;62915;50.832;4.462;2022-12-07T08:31:17;6.30;99.90
23681;DHT22;62915;50.832;4.462;2022-12-07T08:33:46;6.30;99.90
23681;DHT22;62915;50.832;4.462;2022-12-07T08:36:12;6.40;99.90
23681;DHT22;62915;50.832;4.462;2022-12-07T08:38:39;6.40;99.90
23681;DHT22;62915;50.832;4.462;2022-12-07T08:41:06;6.30;99.90
23681;DHT22;62915;50.832;4.462;2022-12-07T08:43:32;6.30;99.90
23681;DHT22;62915;50.832;4.462;2022-12-07T08:49:13;6.30;99.90
23681;DHT22;62915;50.832;4.462;2022-12-07T08:51:37;6.30;99.90
23681;DHT22;62915;50.832;4.462;2022-12-07T08:54:06;6.50;99.90
23681;DHT22;62915;50.832;4.462;2022-12-07T08:56:33;6.50;99.90
23681;DHT22;62915;50.832;4.462;2022-12-07T08:59:00;6.50;99.90
23681;DHT22;62915;50.832;4.462;2022-12-07T09:01:25;6.40;99.90
23681;DHT22;62915;50.832;4.462;2022-12-07T09:03:52;6.40;99.90
23681;DHT22;62915;50.832;4.462;2022-12-07T09:06:18;6.50;99.90
23681;DHT22;62915;50.832;4.462;2022-12-07T09:08:46;6.60;99.90
23681;DHT22;62915;50.832;4.462;2022-12-07T09:11:13;6.60;99.90
23681;DHT22;62915;50.832;4.462;2022-12-07T09:13:38;6.70;99.90
23681;DHT22;62915;50.832;4.462;2022-12-07T09:16:04;6.60;99.90
23681;DHT22;62915;50.832;4.462;2022-12-07T09:18:30;6.80;99.90
23681;DHT22;62915;50.832;4.462;2022-12-07T09:20:56;6.90;99.90
23681;DHT22;62915;50.832;4.462;2022-12-07T09:23:22;7.10;99.90
23681;DHT22;62915;50.832;4.462;2022-12-07T09:25:48;7.10;99.90
23681;DHT22;62915;50.832;4.462;2022-12-07T09:28:14;7.10;99.90
23681;DHT22;62915;50.832;4.462;2022-12-07T09:30:45;7.20;99.90
23681;DHT22;62915;50.832;4.462;2022-12-07T09:33:11;7.20;99.90
23681;DHT22;62915;50.832;4.462;2022-12-07T09:35:37;7.20;99.90
23681;DHT22;62915;50.832;4.462;2022-12-07T09:38:02;7.20;99.90
23681;DHT22;62915;50.832;4.462;2022-12-07T09:40:28;7.30;99.90
23681;DHT22;62915;50.832;4.462;2022-12-07T09:42:55;7.30;99.90
23681;DHT22;62915;50.832;4.462;2022-12-07T09:45:24;7.40;99.90
23681;DHT22;62915;50.832;4.462;2022-12-07T09:47:52;7.30;99.90
23681;DHT22;62915;50.832;4.462;2022-12-07T09:50:24;7.40;99.90
23681;DHT22;62915;50.832;4.462;2022-12-07T09:52:52;7.50;99.90
23681;DHT22;62915;50.832;4.462;2022-12-07T09:55:28;7.40;99.90
23681;DHT22;62915;50.832;4.462;2022-12-07T09:57:54;7.40;99.90
23681;DHT22;62915;50.832;4.462;2022-12-07T10:00:22;7.40;99.90
23681;DHT22;62915;50.832;4.462;2022-12-07T10:03:02;7.40;99.90
23681;DHT22;62915;50.832;4.462;2022-12-07T10:05:35;7.40;99.90
23681;DHT22;62915;50.832;4.462;2022-12-07T10:08:04;7.50;99.90
23681;DHT22;62915;50.832;4.462;2022-12-07T10:10:32;7.50;99.90
23681;DHT22;62915;50.832;4.462;2022-12-07T10:13:06;7.70;99.90
23681;DHT22;62915;50.832;4.462;2022-12-07T10:20:48;8.40;99.90
23681;DHT22;62915;50.832;4.462;2022-12-07T10:23:16;8.40;99.90
23681;DHT22;62915;50.832;4.462;2022-12-07T10:25:42;8.40;99.90
23681;DHT22;62915;50.832;4.462;2022-12-07T10:28:11;8.40;99.90
23681;DHT22;62915;50.832;4.462;2022-12-07T10:33:29;8.30;99.90
23681;DHT22;62915;50.832;4.462;2022-12-07T10:35:55;8.40;99.90
23681;DHT22;62915;50.832;4.462;2022-12-07T10:38:21;8.10;99.90
23681;DHT22;62915;50.832;4.462;2022-12-07T10:40:47;8.10;99.90
23681;DHT22;62915;50.832;4.462;2022-12-07T10:48:42;8.10;99.90
23681;DHT22;62915;50.832;4.462;2022-12-07T10:54:03;8.20;99.90
23681;DHT22;62915;50.832;4.462;2022-12-07T11:07:22;8.10;99.90
23681;DHT22;62915;50.832;4.462;2022-12-07T11:15:13;8.20;99.90
23681;DHT22;62915;50.832;4.462;2022-12-07T11:17:52;8.20;99.90
23681;DHT22;62915;50.832;4.462;2022-12-07T11:23:15;8.10;99.90
23681;DHT22;62915;50.832;4.462;2022-12-07T11:32:04;8.30;99.90
23681;DHT22;62915;50.832;4.462;2022-12-07T11:34:55;8.30;99.90
23681;DHT22;62915;50.832;4.462;2022-12-07T11:37:30;8.10;99.90
23681;DHT22;62915;50.832;4.462;2022-12-07T11:40:03;7.80;99.90
23681;DHT22;62915;50.832;4.462;2022-12-07T11:42:41;7.80;99.90
23681;DHT22;62915;50.832;4.462;2022-12-07T11:45:25;7.90;99.90
23681;DHT22;62915;50.832;4.462;2022-12-07T11:47:56;8.00;99.90
23681;DHT22;62915;50.832;4.462;2022-12-07T11:50:38;8.10;99.90
23681;DHT22;62915;50.832;4.462;2022-12-07T11:55:52;8.20;99.90
23681;DHT22;62915;50.832;4.462;2022-12-07T11:58:38;8.20;99.90
23681;DHT22;62915;50.832;4.462;2022-12-07T12:06:37;8.00;99.90
23681;DHT22;62915;50.832;4.462;2022-12-07T12:09:17;7.90;99.90
23681;DHT22;62915;50.832;4.462;2022-12-07T12:12:11;7.80;99.90
23681;DHT22;62915;50.832;4.462;2022-12-07T12:23:15;7.70;99.90
23681;DHT22;62915;50.832;4.462;2022-12-07T12:25:52;7.70;99.90
23681;DHT22;62915;50.832;4.462;2022-12-07T12:28:41;7.80;99.90
23681;DHT22;62915;50.832;4.462;2022-12-07T12:33:54;7.80;99.90
23681;DHT22;62915;50.832;4.462;2022-12-07T12:44:02;7.90;99.90
23681;DHT22;62915;50.832;4.462;2022-12-07T12:51:43;8.00;99.90
23681;DHT22;62915;50.832;4.462;2022-12-07T12:57:26;8.00;99.90
23681;DHT22;62915;50.832;4.462;2022-12-07T13:02:32;7.90;99.90
23681;DHT22;62915;50.832;4.462;2022-12-07T13:05:03;7.80;99.90
23681;DHT22;62915;50.832;4.462;2022-12-07T13:07:49;7.80;99.90
23681;DHT22;62915;50.832;4.462;2022-12-07T13:15:43;8.00;99.90
23681;DHT22;62915;50.832;4.462;2022-12-07T13:36:53;8.20;99.90
23681;DHT22;62915;50.832;4.462;2022-12-07T13:39:21;8.20;99.90
23681;DHT22;62915;50.832;4.462;2022-12-07T13:41:52;8.20;99.90
23681;DHT22;62915;50.832;4.462;2022-12-07T13:44:19;8.30;99.90
23681;DHT22;62915;50.832;4.462;2022-12-07T13:49:30;8.50;99.90
23681;DHT22;62915;50.832;4.462;2022-12-07T13:54:47;8.50;99.90
23681;DHT22;62915;50.832;4.462;2022-12-07T13:57:15;8.50;99.90
23681;DHT22;62915;50.832;4.462;2022-12-07T13:59:41;8.40;99.90
23681;DHT22;62915;50.832;4.462;2022-12-07T14:02:23;8.40;99.90
23681;DHT22;62915;50.832;4.462;2022-12-07T14:04:50;8.40;99.90
23681;DHT22;62915;50.832;4.462;2022-12-07T14:07:25;8.50;99.90
23681;DHT22;62915;50.832;4.462;2022-12-07T14:09:57;8.50;99.90
23681;DHT22;62915;50.832;4.462;2022-12-07T14:12:24;8.40;99.90
23681;DHT22;62915;50.832;4.462;2022-12-07T14:14:51;8.40;99.90
23681;DHT22;62915;50.832;4.462;2022-12-07T14:17:19;8.20;99.90
23681;DHT22;62915;50.832;4.462;2022-12-07T14:19:49;8.20;99.90
23681;DHT22;62915;50.832;4.462;2022-12-07T14:27:39;7.70;99.90
23681;DHT22;62915;50.832;4.462;2022-12-07T14:30:05;7.50;99.90
23681;DHT22;62915;50.832;4.462;2022-12-07T14:32:34;7.50;99.90
23681;DHT22;62915;50.832;4.462;2022-12-07T14:35:11;7.50;99.90
23681;DHT22;62915;50.832;4.462;2022-12-07T14:37:38;7.50;99.90
23681;DHT22;62915;50.832;4.462;2022-12-07T14:40:05;7.50;99.90
23681;DHT22;62915;50.832;4.462;2022-12-07T14:42:31;7.50;99.90
23681;DHT22;62915;50.832;4.462;2022-12-07T14:44:58;7.40;99.90
23681;DHT22;62915;50.832;4.462;2022-12-07T14:47:25;7.30;99.90
23681;DHT22;62915;50.832;4.462;2022-12-07T14:49:52;7.40;99.90
23681;DHT22;62915;50.832;4.462;2022-12-07T14:52:23;7.50;99.90
23681;DHT22;62915;50.832;4.462;2022-12-07T14:54:50;7.70;99.90
23681;DHT22;62915;50.832;4.462;2022-12-07T14:57:15;7.70;99.90
23681;DHT22;62915;50.832;4.462;2022-12-07T14:59:41;7.70;99.90
23681;DHT22;62915;50.832;4.462;2022-12-07T15:02:10;7.70;99.90
23681;DHT22;62915;50.832;4.462;2022-12-07T15:04:36;7.70;99.90
23681;DHT22;62915;50.832;4.462;2022-12-07T15:07:03;7.80;99.90
23681;DHT22;62915;50.832;4.462;2022-12-07T15:09:30;7.90;99.90
23681;DHT22;62915;50.832;4.462;2022-12-07T15:11:55;7.90;99.90
23681;DHT22;62915;50.832;4.462;2022-12-07T15:14:21;7.90;99.90
23681;DHT22;62915;50.832;4.462;2022-12-07T15:16:47;7.90;99.90
23681;DHT22;62915;50.832;4.462;2022-12-07T15:19:15;7.80;99.90
23681;DHT22;62915;50.832;4.462;2022-12-07T15:21:41;7.80;99.90
23681;DHT22;62915;50.832;4.462;2022-12-07T15:24:09;7.80;99.90
23681;DHT22;62915;50.832;4.462;2022-12-07T15:26:35;7.70;99.90
23681;DHT22;62915;50.832;4.462;2022-12-07T15:29:01;7.80;99.90
23681;DHT22;62915;50.832;4.462;2022-12-07T15:31:27;7.80;99.90
23681;DHT22;62915;50.832;4.462;2022-12-07T15:33:52;7.60;99.90
23681;DHT22;62915;50.832;4.462;2022-12-07T15:36:23;7.70;99.90
23681;DHT22;62915;50.832;4.462;2022-12-07T15:38:49;7.80;99.90
23681;DHT22;62915;50.832;4.462;2022-12-07T15:41:16;7.80;99.90
23681;DHT22;62915;50.832;4.462;2022-12-07T15:43:41;7.60;99.90
23681;DHT22;62915;50.832;4.462;2022-12-07T15:46:30;7.60;99.90
23681;DHT22;62915;50.832;4.462;2022-12-07T15:48:56;7.70;99.90
23681;DHT22;62915;50.832;4.462;2022-12-07T15:51:22;7.80;99.90
23681;DHT22;62915;50.832;4.462;2022-12-07T15:53:47;7.80;99.90
23681;DHT22;62915;50.832;4.462;2022-12-07T15:56:13;7.80;99.90
23681;DHT22;62915;50.832;4.462;2022-12-07T15:58:39;7.80;99.90
23681;DHT22;62915;50.832;4.462;2022-12-07T16:01:12;7.70;99.90
23681;DHT22;62915;50.832;4.462;2022-12-07T16:03:38;7.60;99.90
23681;DHT22;62915;50.832;4.462;2022-12-07T16:06:04;7.40;99.90
23681;DHT22;62915;50.832;4.462;2022-12-07T16:08:29;7.30;99.90
23681;DHT22;62915;50.832;4.462;2022-12-07T16:10:55;7.30;99.90
23681;DHT22;62915;50.832;4.462;2022-12-07T16:13:21;7.50;99.90
23681;DHT22;62915;50.832;4.462;2022-12-07T16:15:47;7.50;99.90
23681;DHT22;62915;50.832;4.462;2022-12-07T16:18:12;7.50;99.90
23681;DHT22;62915;50.832;4.462;2022-12-07T16:20:38;7.60;99.90
23681;DHT22;62915;50.832;4.462;2022-12-07T16:23:04;7.40;99.90
23681;DHT22;62915;50.832;4.462;2022-12-07T16:25:30;7.40;99.90
23681;DHT22;62915;50.832;4.462;2022-12-07T16:27:55;7.50;99.90
23681;DHT22;62915;50.832;4.462;2022-12-07T16:30:21;7.60;99.90
23681;DHT22;62915;50.832;4.462;2022-12-07T16:32:47;7.60;99.90
23681;DHT22;62915;50.832;4.462;2022-12-07T16:35:13;7.60;99.90
23681;DHT22;62915;50.832;4.462;2022-12-07T16:37:41;7.70;99.90
23681;DHT22;62915;50.832;4.462;2022-12-07T16:40:07;7.70;99.90
23681;DHT22;62915;50.832;4.462;2022-12-07T16:42:34;7.70;99.90
23681;DHT22;62915;50.832;4.462;2022-12-07T16:45:00;7.70;99.90
23681;DHT22;62915;50.832;4.462;2022-12-07T16:47:26;7.80;99.90
23681;DHT22;62915;50.832;4.462;2022-12-07T16:49:52;7.80;99.90
23681;DHT22;62915;50.832;4.462;2022-12-07T16:52:19;7.80;99.90
23681;DHT22;62915;50.832;4.462;2022-12-07T16:54:44;7.80;99.90
23681;DHT22;62915;50.832;4.462;2022-12-07T16:57:10;7.80;99.90
23681;DHT22;62915;50.832;4.462;2022-12-07T16:59:36;7.80;99.90
23681;DHT22;62915;50.832;4.462;2022-12-07T17:02:02;7.80;99.90
23681;DHT22;62915;50.832;4.462;2022-12-07T17:04:29;7.70;99.90
23681;DHT22;62915;50.832;4.462;2022-12-07T17:06:54;7.60;99.90
23681;DHT22;62915;50.832;4.462;2022-12-07T17:09:20;7.60;99.90
23681;DHT22;62915;50.832;4.462;2022-12-07T17:11:46;7.60;99.90
23681;DHT22;62915;50.832;4.462;2022-12-07T17:14:11;7.60;99.90
23681;DHT22;62915;50.832;4.462;2022-12-07T17:16:55;7.40;99.90
23681;DHT22;62915;50.832;4.462;2022-12-07T17:19:21;7.30;99.90
23681;DHT22;62915;50.832;4.462;2022-12-07T17:21:47;7.40;99.90
23681;DHT22;62915;50.832;4.462;2022-12-07T17:24:16;7.50;99.90
23681;DHT22;62915;50.832;4.462;2022-12-07T17:26:42;7.60;99.90
23681;DHT22;62915;50.832;4.462;2022-12-07T17:29:10;7.60;99.90
23681;DHT22;62915;50.832;4.462;2022-12-07T17:31:37;7.50;99.90
23681;DHT22;62915;50.832;4.462;2022-12-07T17:34:03;7.40;99.90
23681;DHT22;62915;50.832;4.462;2022-12-07T17:36:32;7.40;99.90
23681;DHT22;62915;50.832;4.462;2022-12-07T17:39:00;7.40;99.90
23681;DHT22;62915;50.832;4.462;2022-12-07T17:41:28;7.50;99.90
23681;DHT22;62915;50.832;4.462;2022-12-07T17:44:17;7.40;99.90
23681;DHT22;62915;50.832;4.462;2022-12-07T17:46:44;7.30;99.90
23681;DHT22;62915;50.832;4.462;2022-12-07T17:49:10;7.30;99.90
23681;DHT22;62915;50.832;4.462;2022-12-07T17:51:36;7.30;99.90
23681;DHT22;62915;50.832;4.462;2022-12-07T17:54:21;7.40;99.90
23681;DHT22;62915;50.832;4.462;2022-12-07T17:56:46;7.30;99.90
23681;DHT22;62915;50.832;4.462;2022-12-07T17:59:12;7.40;99.90
23681;DHT22;62915;50.832;4.462;2022-12-07T18:01:38;7.50;99.90
23681;DHT22;62915;50.832;4.462;2022-12-07T18:04:05;7.50;99.90
23681;DHT22;62915;50.832;4.462;2022-12-07T18:06:31;7.50;99.90
23681;DHT22;62915;50.832;4.462;2022-12-07T18:08:57;7.50;99.90
23681;DHT22;62915;50.832;4.462;2022-12-07T18:11:23;7.60;99.90
23681;DHT22;62915;50.832;4.462;2022-12-07T18:13:49;7.60;99.90
23681;DHT22;62915;50.832;4.462;2022-12-07T18:16:17;7.60;99.90
23681;DHT22;62915;50.832;4.462;2022-12-07T18:18:46;7.60;99.90
23681;DHT22;62915;50.832;4.462;2022-12-07T18:21:16;7.60;99.90
23681;DHT22;62915;50.832;4.462;2022-12-07T18:23:47;7.50;99.90
23681;DHT22;62915;50.832;4.462;2022-12-07T18:26:14;7.30;99.90
23681;DHT22;62915;50.832;4.462;2022-12-07T18:28:42;7.40;99.90
23681;DHT22;62915;50.832;4.462;2022-12-07T18:31:08;7.40;99.90